EA5CEE Santa Pola ES current weather conditions

sailwx.info

Wind from 120 at 6 knots gusting 11

Air temperature 26.1° C
Dewpoint 19.5° C

Last reported at 2018-Jun-22 12:57 UTC.
Time now 2018-Jun-22 13:28 UTC

Location: N 38°13' W 000°31'.
View on Google Maps.

See reports from other nearby stations

  
Tides and Currents Weather Stations Pressure Air Temp Water Temp Dewpoint Dewpoint Depression Visibility Wind Speed Wind Dir Waves Ship Positions
date/time (UTC)wind fromknots sea level pressurealtimeterstation pressurevisibilityair tempwater tempwave heightnotes
2018-Jun-22 12:57 120 6 gusting 11 26.1
2018-Jun-22 12:42 105 5 gusting 10 27.2
2018-Jun-22 12:27 101 5 gusting 9 26.7
2018-Jun-22 12:12 162 6 gusting 8 26.7
2018-Jun-22 11:57 086 6 gusting 9 26.7
2018-Jun-22 11:42 076 5 gusting 6 26.7
2018-Jun-22 11:27 107 4 gusting 6 27.2
2018-Jun-22 11:12 086 4 gusting 7 27.2
2018-Jun-22 10:57 109 4 gusting 6 27.2
2018-Jun-22 10:42 086 4 gusting 6 27.2
2018-Jun-22 10:27 113 4 gusting 6 27.2
2018-Jun-22 10:12 078 4 gusting 6 27.8
2018-Jun-22 09:57 124 4 gusting 6 27.8
2018-Jun-22 09:42 120 4 gusting 7 27.2
2018-Jun-22 09:27 079 3 gusting 7 27.2
2018-Jun-22 09:12 131 3 gusting 6 27.2
2018-Jun-22 08:57 068 3 gusting 6 27.2
2018-Jun-22 08:42 067 1 gusting 5 27.2
2018-Jun-22 08:27 290 0 gusting 2 27.2
2018-Jun-22 08:12 311 0 gusting 5 26.7
2018-Jun-22 07:57 276 1 gusting 5 26.1
2018-Jun-22 07:42 281 5 gusting 7 25.6
2018-Jun-22 07:26 280 5 gusting 7 24.4
2018-Jun-22 07:11 259 4 gusting 6 24.4
2018-Jun-22 06:56 255 4 gusting 7 23.9
2018-Jun-22 06:41 281 3 gusting 6 23.3
2018-Jun-22 06:26 280 5 gusting 6 22.8
2018-Jun-22 06:11 280 4 gusting 6 22.8
2018-Jun-22 05:56 264 3 gusting 6 22.2
2018-Jun-22 05:41 270 3 gusting 6 22.2
2018-Jun-22 05:26 290 5 gusting 6 21.7
2018-Jun-22 05:11 260 4 gusting 6 21.7
2018-Jun-22 04:56 271 2 gusting 4 21.7
2018-Jun-22 04:41 255 2 gusting 3 21.7
2018-Jun-22 04:26 244 1 gusting 2 21.7
2018-Jun-22 04:11 252 0 gusting 1 21.7
2018-Jun-22 03:56 259 0 gusting 2 22.2
2018-Jun-22 03:41 260 0 gusting 1 21.7
2018-Jun-22 03:26 257 0 gusting 1 22.2
2018-Jun-22 03:11 274 1 gusting 2 22.2
2018-Jun-22 02:56 280 22.2
2018-Jun-22 02:41 284 21.7
2018-Jun-22 02:26 284 21.7
2018-Jun-22 02:11 284 21.7
2018-Jun-22 01:56 284 21.7
2018-Jun-22 01:41 284 0 gusting 1 21.7
2018-Jun-22 01:26 289 0 gusting 2 21.7
2018-Jun-22 01:11 275 22.2
2018-Jun-22 00:56 275 22.2
2018-Jun-22 00:41 275 22.2
2018-Jun-22 00:26 248 22.2
2018-Jun-22 00:11 078 22.2
2018-Jun-21 23:56 077 22.2
2018-Jun-21 23:41 077 22.2
2018-Jun-21 23:26 078 22.2
2018-Jun-21 23:11 078 22.8
2018-Jun-21 22:55 077 22.8
2018-Jun-21 22:40 076 22.8
2018-Jun-21 22:25 077 22.2
2018-Jun-21 22:10 086 1 gusting 2 22.2
2018-Jun-21 21:55 077 2 gusting 3 22.8
2018-Jun-21 21:40 076 1 gusting 2 22.8
2018-Jun-21 21:25 075 1 gusting 3 22.8
2018-Jun-21 21:10 079 2 gusting 4 22.8
2018-Jun-21 20:55 096 3 gusting 3 22.8
2018-Jun-21 20:40 117 2 gusting 4 22.8
2018-Jun-21 20:25 096 2 gusting 3 22.8
2018-Jun-21 20:10 108 3 gusting 5 22.8
2018-Jun-21 19:55 096 4 gusting 5 22.8
2018-Jun-21 19:40 086 5 gusting 6 22.8
2018-Jun-21 19:25 068 4 gusting 5 22.8
2018-Jun-21 19:10 070 3 gusting 5 23.3
2018-Jun-21 18:55 076 4 gusting 5 23.3
2018-Jun-21 18:40 077 4 gusting 6 23.9
2018-Jun-21 18:25 079 4 gusting 5 23.9
2018-Jun-21 18:10 068 3 gusting 5 23.9
2018-Jun-21 17:55 110 4 gusting 6 23.9
2018-Jun-21 17:40 079 4 gusting 6 23.9
2018-Jun-21 17:25 070 5 gusting 7 23.9
2018-Jun-21 17:10 084 4 gusting 6 24.4
2018-Jun-21 16:55 074 3 gusting 6 24.4
2018-Jun-21 16:40 075 3 gusting 6 24.4
2018-Jun-21 16:25 081 3 gusting 7 24.4
2018-Jun-21 16:10 068 4 gusting 7 24.4
2018-Jun-21 15:55 089 5 gusting 7 24.4
2018-Jun-21 15:40 073 6 gusting 9 24.4
2018-Jun-21 15:25 089 6 gusting 9 25.0
2018-Jun-21 15:10 096 6 gusting 9 25.0
2018-Jun-21 14:55 080 6 gusting 9 25.0
2018-Jun-21 14:40 089 6 gusting 9 25.0
2018-Jun-21 14:25 076 6 gusting 8 25.6
2018-Jun-21 14:10 068 3 gusting 11 25.6
2018-Jun-21 13:55 058 4 gusting 10 25.6
2018-Jun-21 13:40 079 5 gusting 9 26.1
2018-Jun-21 13:25 157 6 gusting 10 26.1
2018-Jun-21 13:10 079 6 gusting 11 25.6
2018-Jun-21 12:55 080 5 gusting 9 25.6
2018-Jun-21 12:40 097 6 gusting 10 25.0
2018-Jun-21 12:25 082 5 gusting 12 25.0
2018-Jun-21 12:10 136 5 gusting 9 25.6
2018-Jun-21 11:55 084 6 gusting 10 25.6
2018-Jun-21 11:40 094 4 gusting 7 26.1
2018-Jun-21 11:25 134 4 gusting 9 26.7
2018-Jun-21 11:09 127 4 gusting 8 26.1
2018-Jun-21 10:55 143 4 gusting 9 26.7
2018-Jun-21 10:39 077 5 gusting 8 26.7
2018-Jun-21 10:24 078 5 gusting 7 26.1
2018-Jun-21 10:09 115 5 gusting 9 26.1
2018-Jun-21 09:54 096 5 gusting 7 26.1
2018-Jun-21 09:39 108 5 gusting 6 25.6
2018-Jun-21 09:24 093 4 gusting 6 25.6
2018-Jun-21 09:09 101 4 gusting 6 26.1
2018-Jun-21 08:54 114 3 gusting 6 25.6
2018-Jun-21 08:39 061 4 gusting 6 25.6
2018-Jun-21 08:24 023 3 gusting 6 25.6
2018-Jun-21 08:09 105 5 gusting 7 25.0
2018-Jun-21 07:54 018 3 gusting 5 25.0
2018-Jun-21 07:39 071 3 gusting 6 25.0
2018-Jun-21 07:24 105 1 gusting 4 25.0
2018-Jun-21 07:09 063 1 gusting 4 24.4
2018-Jun-21 06:54 062 3 gusting 5 24.4
2018-Jun-21 06:39 016 24.4
2018-Jun-21 06:24 314 23.9
2018-Jun-21 06:09 342 1 gusting 2 23.3
2018-Jun-21 05:54 356 23.3
2018-Jun-21 05:39 005 0 gusting 2 22.8
2018-Jun-21 05:24 026 0 gusting 1 22.2
2018-Jun-21 05:09 026 0 gusting 2 22.2
2018-Jun-21 04:54 037 1 gusting 2 21.7
2018-Jun-21 04:39 044 1 gusting 2 21.7
2018-Jun-21 04:24 044 1 gusting 4 21.7
2018-Jun-21 04:09 041 2 gusting 3 21.7
2018-Jun-21 03:54 017 1 gusting 2 21.7
2018-Jun-21 03:39 025 2 gusting 3 21.1
2018-Jun-21 03:24 023 1 gusting 4 21.1
2018-Jun-21 03:09 025 0 gusting 4 21.7
2018-Jun-21 02:54 030 2 gusting 4 21.7
2018-Jun-21 02:39 044 2 gusting 5 21.7
2018-Jun-21 02:24 032 2 gusting 5 21.7
2018-Jun-21 02:09 052 1 gusting 4 21.7
2018-Jun-21 01:53 027 21.7
2018-Jun-21 01:38 048 2 gusting 6 21.7
2018-Jun-21 01:23 056 5 gusting 8 22.2
2018-Jun-21 01:08 065 5 gusting 9 22.2
2018-Jun-21 00:53 079 5 gusting 6 22.2
2018-Jun-21 00:38 109 3 gusting 6 22.2
2018-Jun-21 00:23 092 3 gusting 6 22.2
2018-Jun-21 00:08 091 5 gusting 7 22.2
2018-Jun-20 23:53 086 5 gusting 6 22.2
2018-Jun-20 23:38 101 4 gusting 7 22.2
2018-Jun-20 23:23 073 5 gusting 6 22.2
2018-Jun-20 23:08 068 3 gusting 6 22.2
2018-Jun-20 22:53 090 3 gusting 6 22.8
2018-Jun-20 22:38 085 3 gusting 5 22.8
2018-Jun-20 22:23 083 3 gusting 5 22.8
2018-Jun-20 22:08 103 4 gusting 6 22.8
2018-Jun-20 21:53 072 3 gusting 5 22.2
2018-Jun-20 21:38 070 2 gusting 5 22.2
2018-Jun-20 21:23 074 4 gusting 6 22.2
2018-Jun-20 21:08 068 3 gusting 5 22.2
2018-Jun-20 20:53 068 2 gusting 3 22.2
2018-Jun-20 20:38 058 2 gusting 4 22.2
2018-Jun-20 20:23 077 2 gusting 4 22.8
2018-Jun-20 20:08 060 3 22.8
2018-Jun-20 19:53 075 1 gusting 3 22.8
2018-Jun-20 19:38 073 2 gusting 4 22.8
2018-Jun-20 19:23 070 3 gusting 5 22.8
2018-Jun-20 19:08 087 3 gusting 5 23.3
2018-Jun-20 18:53 082 5 gusting 7 23.3
2018-Jun-20 18:38 075 5 gusting 7 23.3
2018-Jun-20 18:23 070 5 gusting 7 23.3
2018-Jun-20 18:08 083 6 gusting 7 23.3
2018-Jun-20 17:53 063 5 gusting 8 23.9
2018-Jun-20 17:38 098 6 gusting 8 23.9
2018-Jun-20 17:23 067 6 gusting 8 23.9
2018-Jun-20 17:08 068 6 gusting 8 23.9
2018-Jun-20 16:53 082 6 gusting 8 23.9
2018-Jun-20 16:23 079 4 gusting 8 24.4
2018-Jun-20 16:07 088 6 gusting 8 24.4
2018-Jun-20 15:52 056 6 gusting 9 24.4
2018-Jun-20 15:37 068 6 gusting 9 24.4
2018-Jun-20 15:22 101 6 gusting 10 24.4
2018-Jun-20 15:07 044 6 gusting 8 24.4
2018-Jun-20 14:52 069 6 gusting 8 24.4
2018-Jun-20 14:37 061 6 gusting 8 24.4
2018-Jun-20 14:22 097 6 gusting 10 24.4
2018-Jun-20 14:07 075 6 gusting 10 24.4
2018-Jun-20 13:52 065 5 gusting 10 25.0
2018-Jun-20 13:37 107 6 gusting 10 24.4
2018-Jun-20 13:22 100 7 gusting 10 24.4
2018-Jun-20 13:07 097 4 gusting 10 25.0